Time;durP1;ratioP1;P1;durP2;ratioP2;P2;SDS_P1;SDS_P2;PMS_P1;PMS_P2;Temp;Humidity;BMP_temperature;BMP_pressure;BME280_temperature;BME280_humidity;BME280_pressure;Samples;Min_cycle;Max_cycle;Signal;HPM_P1;HPM_P2
2023/08/14 00:01:27;;;;;;;13.00;3.40;;;15.90;99.90;;;;;;5051787;28;20045;-61
2023/08/14 00:03:55;;;;;;;9.55;2.55;;;15.90;99.90;;;;;;5057200;28;20041;-61
2023/08/14 00:06:23;;;;;;;9.88;2.22;;;15.90;99.90;;;;;;5048807;28;20046;-61
2023/08/14 00:08:51;;;;;;;8.63;2.22;;;15.80;99.90;;;;;;5044228;28;20045;-61
2023/08/14 00:11:19;;;;;;;12.13;2.22;;;15.70;99.90;;;;;;5031357;28;20050;-61
2023/08/14 00:13:52;;;;;;;7.88;2.10;;;15.70;99.90;;;;;;5040866;28;20423;-61
2023/08/14 00:16:20;;;;;;;6.88;2.30;;;15.60;99.90;;;;;;5036597;28;20052;-61
2023/08/14 00:18:48;;;;;;;7.47;2.53;;;15.60;99.90;;;;;;5008908;28;20502;-59
2023/08/14 00:21:16;;;;;;;10.73;2.63;;;15.60;99.90;;;;;;5039335;28;20052;-62
2023/08/14 00:23:44;;;;;;;15.70;2.50;;;15.60;99.90;;;;;;5044790;28;20436;-62
2023/08/14 00:26:12;;;;;;;9.23;2.13;;;15.60;99.90;;;;;;5032063;28;20400;-62
2023/08/14 00:28:40;;;;;;;7.82;1.70;;;15.60;99.90;;;;;;5046747;28;20057;-62
2023/08/14 00:31:08;;;;;;;11.32;2.42;;;15.50;99.90;;;;;;5033457;28;20679;-62
2023/08/14 00:33:36;;;;;;;11.70;2.78;;;15.50;99.90;;;;;;5034757;28;20060;-61
2023/08/14 00:36:07;;;;;;;15.93;2.72;;;15.50;99.90;;;;;;5031165;28;20037;-60
2023/08/14 00:38:35;;;;;;;16.20;2.80;;;15.50;99.90;;;;;;5039299;28;20048;-59
2023/08/14 00:41:03;;;;;;;13.98;2.40;;;15.40;99.90;;;;;;5043515;28;20041;-60
2023/08/14 00:43:31;;;;;;;9.48;2.63;;;15.40;99.90;;;;;;5054342;28;20063;-59
2023/08/14 00:46:00;;;;;;;17.10;3.10;;;15.40;99.90;;;;;;5050877;28;20485;-60
2023/08/14 00:48:29;;;;;;;14.27;2.73;;;15.30;99.90;;;;;;5046598;28;20044;-60
2023/08/14 00:50:57;;;;;;;11.65;2.33;;;15.30;99.90;;;;;;5049271;28;20443;-59
2023/08/14 00:53:28;;;;;;;9.87;3.77;;;15.30;99.90;;;;;;5053010;28;20388;-59
2023/08/14 00:55:57;;;;;;;18.33;2.78;;;15.30;99.90;;;;;;5029614;28;20045;-60
2023/08/14 00:58:25;;;;;;;12.68;3.20;;;15.20;99.90;;;;;;5033670;28;20054;-61
2023/08/14 01:00:53;;;;;;;13.10;2.78;;;15.20;99.90;;;;;;5037886;28;20053;-60
2023/08/14 01:03:23;;;;;;;14.02;3.40;;;15.20;99.90;;;;;;5045567;28;20052;-61
2023/08/14 01:05:51;;;;;;;9.85;2.83;;;15.20;99.90;;;;;;5028313;28;20076;-60
2023/08/14 01:08:19;;;;;;;11.40;3.22;;;15.20;99.90;;;;;;5042424;28;20135;-60
2023/08/14 01:10:56;;;;;;;15.55;3.67;;;15.20;99.90;;;;;;5045504;28;20045;-61
2023/08/14 01:13:48;;;;;;;14.35;3.33;;;15.20;99.90;;;;;;5039982;28;20052;-60
2023/08/14 01:16:22;;;;;;;8.77;3.03;;;15.20;99.90;;;;;;5043161;28;20041;-61
2023/08/14 01:18:53;;;;;;;13.85;3.35;;;15.20;99.90;;;;;;5039433;28;20049;-60
2023/08/14 01:21:42;;;;;;;13.90;3.53;;;15.20;99.90;;;;;;5055126;28;20503;-60
2023/08/14 01:24:22;;;;;;;14.77;3.85;;;15.20;99.90;;;;;;5064367;28;20041;-60
2023/08/14 01:26:51;;;;;;;;;;;15.20;99.90;;;;;;5042645;28;20053;-60
2023/08/14 01:29:18;;;;;;;12.77;3.58;;;15.30;99.90;;;;;;5031080;28;19921;-61
2023/08/14 01:31:46;;;;;;;13.13;3.40;;;15.20;99.90;;;;;;5030428;28;20050;-62
2023/08/14 01:34:14;;;;;;;11.45;3.30;;;15.20;99.90;;;;;;5036471;28;20068;-62
2023/08/14 01:37:01;;;;;;;7.22;3.15;;;15.30;99.90;;;;;;5038658;28;20045;-62
2023/08/14 01:39:48;;;;;;;23.25;3.90;;;15.20;99.90;;;;;;5053177;28;20064;-62
2023/08/14 01:42:28;;;;;;;16.35;3.65;;;15.20;99.90;;;;;;5051947;28;20048;-62
2023/08/14 01:45:01;;;;;;;16.70;3.38;;;15.20;99.90;;;;;;5052737;28;20527;-62
2023/08/14 01:47:30;;;;;;;10.07;3.53;;;15.20;99.90;;;;;;5038526;28;20050;-62
2023/08/14 01:50:01;;;;;;;13.75;3.45;;;15.20;99.90;;;;;;5034901;28;20420;-62
2023/08/14 01:52:30;;;;;;;10.65;3.60;;;15.20;99.90;;;;;;5062459;28;20045;-61
2023/08/14 01:55:01;;;;;;;12.23;3.57;;;15.30;99.90;;;;;;5073268;28;20373;-62
2023/08/14 01:57:30;;;;;;;13.98;2.92;;;15.30;99.90;;;;;;5071146;28;20043;-62
2023/08/14 01:59:58;;;;;;;13.57;3.75;;;15.30;99.90;;;;;;5047743;28;20045;-61
2023/08/14 02:02:25;;;;;;;13.82;3.10;;;15.30;99.90;;;;;;5031854;28;20050;-61
2023/08/14 02:04:53;;;;;;;12.23;2.85;;;15.30;99.90;;;;;;5050274;28;20480;-61
2023/08/14 02:07:21;;;;;;;12.90;3.50;;;15.20;99.90;;;;;;5043411;28;20048;-61
2023/08/14 02:09:49;;;;;;;5.72;2.67;;;15.30;99.90;;;;;;5046393;28;20042;-61
2023/08/14 02:12:17;;;;;;;9.27;3.20;;;15.30;99.90;;;;;;5049771;28;20049;-61
2023/08/14 02:14:45;;;;;;;9.70;3.10;;;15.30;99.90;;;;;;5051336;28;20037;-61
2023/08/14 02:17:13;;;;;;;11.63;2.70;;;15.30;99.90;;;;;;5017139;28;20052;-61
2023/08/14 02:19:42;;;;;;;7.15;2.92;;;15.20;99.90;;;;;;5044967;28;20056;-60
2023/08/14 02:22:09;;;;;;;11.20;2.55;;;15.20;99.90;;;;;;5054357;28;20048;-60
2023/08/14 02:24:37;;;;;;;7.38;2.65;;;15.20;99.90;;;;;;5031765;28;20048;-60
2023/08/14 02:27:05;;;;;;;8.38;2.08;;;15.20;99.90;;;;;;5040338;28;20072;-59
2023/08/14 02:29:33;;;;;;;5.82;2.58;;;15.20;99.90;;;;;;5043950;28;20053;-60
2023/08/14 02:32:01;;;;;;;9.88;2.30;;;15.20;99.90;;;;;;5051929;28;20064;-60
2023/08/14 02:34:33;;;;;;;9.65;2.08;;;15.10;99.90;;;;;;5033532;28;20052;-61
2023/08/14 02:37:01;;;;;;;8.40;2.50;;;15.20;99.90;;;;;;5025655;28;20046;-61
2023/08/14 02:39:28;;;;;;;4.25;2.10;;;15.20;99.90;;;;;;5034347;28;20419;-61
2023/08/14 02:41:56;;;;;;;7.43;2.53;;;15.20;99.90;;;;;;5047434;28;20049;-61
2023/08/14 02:44:24;;;;;;;6.70;3.35;;;15.10;99.90;;;;;;5030754;28;20052;-61
2023/08/14 02:46:53;;;;;;;5.13;2.17;;;15.20;99.90;;;;;;5017803;28;20472;-61
2023/08/14 02:49:21;;;;;;;7.10;2.40;;;15.20;99.90;;;;;;5051796;28;20049;-61
2023/08/14 02:51:49;;;;;;;6.40;2.45;;;15.20;99.90;;;;;;5059159;28;20041;-61
2023/08/14 02:54:16;;;;;;;5.45;2.22;;;15.10;99.90;;;;;;5070929;28;20407;-61
2023/08/14 02:56:44;;;;;;;7.35;2.05;;;15.20;99.90;;;;;;5058226;28;20049;-61
2023/08/14 02:59:11;;;;;;;6.30;1.80;;;15.10;99.90;;;;;;5038878;28;20500;-61
2023/08/14 03:01:39;;;;;;;4.63;2.00;;;15.20;99.90;;;;;;5034338;28;20041;-61
2023/08/14 03:04:07;;;;;;;7.47;2.08;;;15.20;99.90;;;;;;5038795;28;20064;-60
2023/08/14 03:06:35;;;;;;;2.67;1.70;;;15.10;99.90;;;;;;5031634;28;20045;-61
2023/08/14 03:09:03;;;;;;;10.05;1.80;;;15.10;99.90;;;;;;5031715;28;20056;-61
2023/08/14 03:11:30;;;;;;;7.75;2.60;;;15.10;99.90;;;;;;5030745;28;20349;-61
2023/08/14 03:13:58;;;;;;;9.13;2.15;;;15.10;99.90;;;;;;5037682;28;20041;-61
2023/08/14 03:16:26;;;;;;;4.15;2.00;;;15.10;99.90;;;;;;5050361;28;20056;-61
2023/08/14 03:18:53;;;;;;;4.78;2.03;;;15.10;99.90;;;;;;5051047;28;20047;-61
2023/08/14 03:21:21;;;;;;;9.82;1.92;;;15.10;99.90;;;;;;5053264;28;20037;-61
2023/08/14 03:23:50;;;;;;;7.68;2.25;;;15.10;99.90;;;;;;5070355;28;20059;-61
2023/08/14 03:26:18;;;;;;;11.30;2.25;;;15.10;99.90;;;;;;5055677;28;20045;-61
2023/08/14 03:28:45;;;;;;;5.82;2.95;;;15.10;99.90;;;;;;5029053;28;20045;-61
2023/08/14 03:31:13;;;;;;;3.05;1.92;;;15.10;99.90;;;;;;5030644;28;20038;-60
2023/08/14 03:33:41;;;;;;;7.45;2.40;;;15.10;99.90;;;;;;5030393;28;20064;-61
2023/08/14 03:36:10;;;;;;;6.13;2.85;;;15.10;99.90;;;;;;5033849;28;20059;-61
2023/08/14 03:38:38;;;;;;;7.47;2.42;;;15.10;99.90;;;;;;5035764;28;20048;-61
2023/08/14 03:41:05;;;;;;;7.85;2.83;;;15.10;99.90;;;;;;5034480;28;20412;-61
2023/08/14 03:43:33;;;;;;;8.65;3.05;;;15.10;99.90;;;;;;5036154;28;20041;-61
2023/08/14 03:46:01;;;;;;;9.52;2.88;;;15.20;99.90;;;;;;5047976;28;20044;-60
2023/08/14 03:48:30;;;;;;;6.28;2.55;;;15.20;99.90;;;;;;5048817;28;20060;-61
2023/08/14 03:50:57;;;;;;;4.38;2.53;;;15.20;99.90;;;;;;5041997;28;20041;-61
2023/08/14 03:53:25;;;;;;;9.32;2.83;;;15.20;99.90;;;;;;5071315;28;20063;-61
2023/08/14 03:55:53;;;;;;;7.38;2.78;;;15.20;99.90;;;;;;5070459;28;20060;-58
2023/08/14 03:58:21;;;;;;;8.60;2.75;;;15.20;99.90;;;;;;5053771;28;20053;-58
2023/08/14 04:00:49;;;;;;;7.70;3.05;;;15.20;99.90;;;;;;5031081;28;20489;-61
2023/08/14 04:03:17;;;;;;;10.98;3.83;;;15.20;99.90;;;;;;5029982;28;20045;-61
2023/08/14 04:05:45;;;;;;;9.30;3.00;;;15.20;99.90;;;;;;5031455;28;20056;-60
2023/08/14 04:08:14;;;;;;;14.32;3.75;;;15.20;99.90;;;;;;5030940;28;20057;-61
2023/08/14 04:10:42;;;;;;;8.85;3.05;;;15.20;99.90;;;;;;5031145;28;20041;-61
2023/08/14 04:13:09;;;;;;;11.85;3.70;;;15.20;99.90;;;;;;5031069;28;20053;-61
2023/08/14 04:15:37;;;;;;;6.80;3.10;;;15.20;99.90;;;;;;5029766;28;20049;-60
2023/08/14 04:18:05;;;;;;;8.23;2.67;;;15.30;99.90;;;;;;5031351;28;20397;-61
2023/08/14 04:20:33;;;;;;;9.73;2.67;;;15.30;99.90;;;;;;5029852;28;20049;-61
2023/08/14 04:23:01;;;;;;;7.68;2.88;;;15.30;99.90;;;;;;5066607;28;20043;-61
2023/08/14 04:25:28;;;;;;;10.15;3.20;;;15.30;99.90;;;;;;5071151;28;20052;-60
2023/08/14 04:27:56;;;;;;;10.57;3.78;;;15.30;99.90;;;;;;5053272;28;20048;-60
2023/08/14 04:30:24;;;;;;;7.05;3.08;;;15.30;99.90;;;;;;5049260;28;20052;-60
2023/08/14 04:32:51;;;;;;;8.27;2.95;;;15.30;99.90;;;;;;5054306;28;20064;-61
2023/08/14 04:35:21;;;;;;;11.53;3.20;;;15.30;99.90;;;;;;5028659;28;20045;-61
2023/08/14 04:37:51;;;;;;;6.80;3.00;;;15.30;99.90;;;;;;5052887;28;20515;-61
2023/08/14 04:40:19;;;;;;;9.98;3.50;;;15.30;99.90;;;;;;5036606;28;20048;-62
2023/08/14 04:42:48;;;;;;;12.90;3.38;;;15.30;99.90;;;;;;5047744;28;20041;-61
2023/08/14 04:45:15;;;;;;;7.22;3.20;;;15.30;99.90;;;;;;5033260;28;20045;-61
2023/08/14 04:47:43;;;;;;;7.32;2.92;;;15.30;99.90;;;;;;5030777;28;20499;-60
2023/08/14 04:50:12;;;;;;;9.65;3.20;;;15.40;99.90;;;;;;5045753;28;20041;-61
2023/08/14 04:52:40;;;;;;;7.22;2.75;;;15.40;99.90;;;;;;5049826;28;20040;-61
2023/08/14 04:55:08;;;;;;;8.00;3.30;;;15.40;99.90;;;;;;5029475;28;20041;-61
2023/08/14 04:57:38;;;;;;;;;;;15.40;99.90;;;;;;5030726;28;20069;-61
2023/08/14 05:00:08;;;;;;;9.27;3.40;;;15.40;99.90;;;;;;5016015;28;19920;-61
2023/08/14 05:02:36;;;;;;;5.40;3.03;;;15.40;99.90;;;;;;5029173;28;20052;-61
2023/08/14 05:05:04;;;;;;;8.07;3.00;;;15.40;99.90;;;;;;5034928;28;20044;-61
2023/08/14 05:07:32;;;;;;;6.97;3.47;;;15.40;99.90;;;;;;5030329;28;20049;-61
2023/08/14 05:10:03;;;;;;;6.70;3.30;;;15.40;99.90;;;;;;5042412;28;20048;-61
2023/08/14 05:12:31;;;;;;;7.10;3.60;;;15.40;99.90;;;;;;5048547;28;20428;-61
2023/08/14 05:14:59;;;;;;;5.45;3.05;;;15.40;99.90;;;;;;5048952;28;20041;-61
2023/08/14 05:17:27;;;;;;;7.40;3.67;;;15.40;99.90;;;;;;5045554;28;20500;-61
2023/08/14 05:19:55;;;;;;;7.57;3.50;;;15.40;99.90;;;;;;5033796;28;20049;-61
2023/08/14 05:22:23;;;;;;;9.20;3.58;;;15.40;99.90;;;;;;5047734;28;20045;-60
2023/08/14 05:24:51;;;;;;;9.35;3.75;;;15.40;99.90;;;;;;5025432;28;20046;-60
2023/08/14 05:27:20;;;;;;;6.82;3.72;;;15.50;99.90;;;;;;5037897;28;20048;-60
2023/08/14 05:29:47;;;;;;;9.20;3.33;;;15.50;99.90;;;;;;5055732;28;20536;-61
2023/08/14 05:32:15;;;;;;;6.13;3.00;;;15.40;99.90;;;;;;5044085;28;20042;-61
2023/08/14 05:34:43;;;;;;;9.63;3.38;;;15.50;99.90;;;;;;5038344;28;20045;-61
2023/08/14 05:37:11;;;;;;;6.22;3.05;;;15.50;99.90;;;;;;5027707;28;20045;-60
2023/08/14 05:39:38;;;;;;;7.47;2.85;;;15.50;99.90;;;;;;5034005;28;20381;-59
2023/08/14 05:42:06;;;;;;;8.02;2.80;;;15.50;99.90;;;;;;5044949;28;20041;-59
2023/08/14 05:44:34;;;;;;;4.53;2.40;;;15.50;99.90;;;;;;5044260;28;20049;-60
2023/08/14 05:47:02;;;;;;;7.60;2.47;;;15.50;99.90;;;;;;5042862;28;20040;-59
2023/08/14 05:49:29;;;;;;;4.72;2.38;;;15.50;99.90;;;;;;5031909;28;20053;-59
2023/08/14 05:51:57;;;;;;;5.53;2.10;;;15.50;99.90;;;;;;5048667;28;20052;-59
2023/08/14 05:54:25;;;;;;;6.72;2.17;;;15.50;99.90;;;;;;5055695;28;20049;-60
2023/08/14 05:56:53;;;;;;;5.55;2.10;;;15.50;99.90;;;;;;5030533;28;20052;-59
2023/08/14 05:59:20;;;;;;;3.50;1.88;;;15.60;99.90;;;;;;5045024;28;20060;-60
2023/08/14 06:01:51;;;;;;;4.90;2.20;;;15.60;99.90;;;;;;5044918;28;20060;-58
2023/08/14 06:04:23;;;;;;;3.47;1.52;;;15.50;99.90;;;;;;5059009;28;20048;-58
2023/08/14 06:06:50;;;;;;;5.00;1.73;;;15.60;99.90;;;;;;5034477;28;20049;-58
2023/08/14 06:09:19;;;;;;;3.70;1.80;;;15.50;99.90;;;;;;5032424;28;20046;-58
2023/08/14 06:11:47;;;;;;;2.03;1.60;;;15.60;99.90;;;;;;5039857;28;20052;-58
2023/08/14 06:14:14;;;;;;;3.92;1.40;;;15.60;99.90;;;;;;5057358;28;20518;-58
2023/08/14 06:16:42;;;;;;;4.03;1.92;;;15.60;99.90;;;;;;5036976;28;20048;-58
2023/08/14 06:19:10;;;;;;;7.10;1.88;;;15.60;99.90;;;;;;5046650;28;20395;-58
2023/08/14 06:21:38;;;;;;;2.55;1.20;;;15.60;99.90;;;;;;5043084;28;20358;-58
2023/08/14 06:24:06;;;;;;;2.72;1.33;;;15.60;99.90;;;;;;5057985;28;20048;-58
2023/08/14 06:26:33;;;;;;;3.17;1.05;;;15.60;99.90;;;;;;5040848;28;20392;-58
2023/08/14 06:29:01;;;;;;;1.30;0.77;;;15.60;99.90;;;;;;5053976;28;20040;-57
2023/08/14 06:31:29;;;;;;;3.25;1.00;;;15.60;99.90;;;;;;5037045;28;20045;-58
2023/08/14 06:33:57;;;;;;;1.02;0.85;;;15.60;99.90;;;;;;5029652;28;20051;-58
2023/08/14 06:36:25;;;;;;;3.10;0.95;;;15.60;99.90;;;;;;5030528;28;20397;-59
2023/08/14 06:38:53;;;;;;;2.47;1.00;;;15.60;99.90;;;;;;5040177;28;20045;-58
2023/08/14 06:41:23;;;;;;;1.08;0.68;;;15.60;99.90;;;;;;5033388;28;20050;-58
2023/08/14 06:43:51;;;;;;;1.20;0.73;;;15.60;99.90;;;;;;5036757;28;20068;-57
2023/08/14 06:46:19;;;;;;;1.48;0.70;;;15.60;99.90;;;;;;5048313;28;20404;-57
2023/08/14 06:48:47;;;;;;;2.70;0.90;;;15.60;99.90;;;;;;5048239;28;20075;-57
2023/08/14 06:51:14;;;;;;;1.75;0.82;;;15.60;99.90;;;;;;5040042;28;20082;-57
2023/08/14 06:53:42;;;;;;;2.05;0.47;;;15.60;99.90;;;;;;5032279;28;20068;-57
2023/08/14 06:56:10;;;;;;;1.10;0.40;;;15.60;99.90;;;;;;5036716;28;20053;-57
2023/08/14 06:58:38;;;;;;;1.63;0.80;;;15.60;99.90;;;;;;5047137;28;20049;-57
2023/08/14 07:01:06;;;;;;;1.92;0.70;;;15.60;99.90;;;;;;5046371;28;20060;-57
2023/08/14 07:03:34;;;;;;;2.30;0.90;;;15.60;99.90;;;;;;5026788;28;20413;-57
2023/08/14 07:06:03;;;;;;;2.45;0.80;;;15.70;99.90;;;;;;5042049;28;20045;-57
2023/08/14 07:08:31;;;;;;;1.73;0.88;;;15.70;99.90;;;;;;5037297;28;20056;-57
2023/08/14 07:10:59;;;;;;;4.68;0.95;;;15.70;99.90;;;;;;5028028;28;20048;-58
2023/08/14 07:13:27;;;;;;;3.78;0.65;;;15.70;99.90;;;;;;5038223;28;20045;-58
2023/08/14 07:15:55;;;;;;;1.90;0.90;;;15.70;99.90;;;;;;5048457;28;20037;-58
2023/08/14 07:18:23;;;;;;;3.90;1.30;;;15.80;99.90;;;;;;5047716;28;20044;-57
2023/08/14 07:20:51;;;;;;;3.08;1.20;;;15.80;99.90;;;;;;5048368;28;20064;-58
2023/08/14 07:23:23;;;;;;;2.35;1.10;;;15.90;99.90;;;;;;5053059;28;20048;-57
2023/08/14 07:25:51;;;;;;;1.98;1.00;;;15.90;99.90;;;;;;5047098;28;20044;-58
2023/08/14 07:28:19;;;;;;;2.17;0.93;;;15.90;99.90;;;;;;5051666;28;20041;-58
2023/08/14 07:30:46;;;;;;;1.80;0.98;;;16.00;99.90;;;;;;5045424;28;20645;-58
2023/08/14 07:33:15;;;;;;;2.80;0.88;;;16.00;99.90;;;;;;5030901;28;20044;-58
2023/08/14 07:35:43;;;;;;;2.88;1.00;;;16.10;99.90;;;;;;5048201;28;20048;-58
2023/08/14 07:38:12;;;;;;;1.30;0.90;;;16.10;99.90;;;;;;5036046;28;20395;-58
2023/08/14 07:40:40;;;;;;;2.23;0.97;;;16.20;99.90;;;;;;5026694;28;20064;-58
2023/08/14 07:43:08;;;;;;;1.50;0.80;;;16.30;99.90;;;;;;5030516;28;20654;-58
2023/08/14 07:45:36;;;;;;;2.08;1.20;;;16.30;99.90;;;;;;5036034;28;20397;-58
2023/08/14 07:48:04;;;;;;;2.35;1.30;;;16.30;99.90;;;;;;5042891;28;20384;-58
2023/08/14 07:50:32;;;;;;;3.13;1.00;;;16.30;99.90;;;;;;5047821;28;20060;-58
2023/08/14 07:52:59;;;;;;;1.90;1.00;;;16.40;99.90;;;;;;5040810;28;20038;-61
2023/08/14 07:55:27;;;;;;;4.38;0.93;;;16.40;99.90;;;;;;5047884;28;20049;-58
2023/08/14 07:57:55;;;;;;;0.73;0.70;;;16.40;99.90;;;;;;5046888;28;20033;-58
2023/08/14 08:00:23;;;;;;;2.78;0.90;;;16.50;99.90;;;;;;5031722;28;20057;-58
2023/08/14 08:02:51;;;;;;;3.55;1.23;;;16.50;99.90;;;;;;5027525;28;20477;-58
2023/08/14 08:05:21;;;;;;;2.65;0.95;;;16.50;99.90;;;;;;5027837;28;20050;-58
2023/08/14 08:07:49;;;;;;;1.48;0.88;;;16.50;99.90;;;;;;5036121;28;20049;-58
2023/08/14 08:10:19;;;;;;;;;;;16.50;99.90;;;;;;5052056;28;20519;-58
2023/08/14 08:12:47;;;;;;;2.05;0.80;;;16.50;99.90;;;;;;5050342;28;19921;-58
2023/08/14 08:15:14;;;;;;;1.92;1.17;;;16.50;99.90;;;;;;5066297;28;20045;-58
2023/08/14 08:17:42;;;;;;;2.08;1.13;;;16.50;99.90;;;;;;5054764;28;20051;-59
2023/08/14 08:20:10;;;;;;;4.00;1.20;;;16.50;99.90;;;;;;5071603;28;20048;-59
2023/08/14 08:22:38;;;;;;;4.85;1.65;;;16.50;99.90;;;;;;5064978;28;20076;-58
2023/08/14 08:25:06;;;;;;;3.38;1.50;;;16.60;99.90;;;;;;5066966;28;20036;-58
2023/08/14 08:27:35;;;;;;;1.65;1.38;;;16.60;99.90;;;;;;5048909;28;20049;-59
2023/08/14 08:30:04;;;;;;;5.53;1.90;;;16.70;99.90;;;;;;5052575;28;20056;-59
2023/08/14 08:32:32;;;;;;;5.03;2.08;;;16.70;99.90;;;;;;5035065;28;20428;-59
2023/08/14 08:35:00;;;;;;;4.45;2.30;;;16.70;99.90;;;;;;5038131;28;20064;-59
2023/08/14 08:37:27;;;;;;;5.05;2.22;;;16.70;99.90;;;;;;5050174;28;20041;-59
2023/08/14 08:39:55;;;;;;;6.55;3.10;;;16.70;99.90;;;;;;5030791;28;20536;-60
2023/08/14 08:42:23;;;;;;;6.82;2.10;;;16.70;99.90;;;;;;5030180;28;20053;-59
2023/08/14 08:44:55;;;;;;;5.30;2.40;;;16.70;99.90;;;;;;5047504;28;20044;-59
2023/08/14 08:47:25;;;;;;;4.07;2.50;;;16.80;99.90;;;;;;5047139;28;20496;-59
2023/08/14 08:49:54;;;;;;;7.93;2.78;;;16.80;99.90;;;;;;5046084;28;20060;-59
2023/08/14 08:52:22;;;;;;;3.67;2.67;;;16.80;99.90;;;;;;5054693;28;20385;-59
2023/08/14 08:54:50;;;;;;;5.75;2.83;;;16.80;99.90;;;;;;5031458;28;20049;-59
2023/08/14 08:57:18;;;;;;;10.55;3.03;;;16.90;99.90;;;;;;5030987;28;20049;-58
2023/08/14 08:59:47;;;;;;;6.25;2.72;;;17.00;99.90;;;;;;5047876;28;20073;-58
2023/08/14 09:02:15;;;;;;;6.15;2.55;;;17.00;99.90;;;;;;5050887;28;20045;-58
2023/08/14 09:04:45;;;;;;;6.60;2.72;;;17.00;99.90;;;;;;5049337;28;20052;-59
2023/08/14 09:07:14;;;;;;;5.85;2.78;;;17.00;99.90;;;;;;5048388;28;20052;-59
2023/08/14 09:09:42;;;;;;;7.47;2.67;;;17.10;99.90;;;;;;5035470;28;20041;-59
2023/08/14 09:12:12;;;;;;;4.55;2.53;;;17.10;99.90;;;;;;5049815;28;20045;-58
2023/08/14 09:14:43;;;;;;;6.72;2.28;;;17.10;99.90;;;;;;5056855;28;20052;-59
2023/08/14 09:17:11;;;;;;;5.55;2.80;;;17.10;99.90;;;;;;5069361;28;20064;-59
2023/08/14 09:19:43;;;;;;;9.38;2.50;;;17.10;99.90;;;;;;5034654;28;20397;-59
2023/08/14 09:22:11;;;;;;;6.17;2.90;;;17.10;99.90;;;;;;5045125;28;20052;-59
2023/08/14 09:24:39;;;;;;;9.70;3.00;;;17.10;99.90;;;;;;5041321;28;20452;-59
2023/08/14 09:27:07;;;;;;;7.55;2.53;;;17.10;99.90;;;;;;5043390;28;20709;-59
2023/08/14 09:29:35;;;;;;;6.50;2.75;;;17.10;99.90;;;;;;5045180;28;20055;-59
2023/08/14 09:32:05;;;;;;;6.97;2.60;;;17.10;99.90;;;;;;5057949;28;20044;-59
2023/08/14 09:34:33;;;;;;;6.20;2.45;;;17.10;99.90;;;;;;5037034;28;20033;-59
2023/08/14 09:37:00;;;;;;;6.15;2.10;;;17.10;99.90;;;;;;5042565;28;20033;-59
2023/08/14 09:39:28;;;;;;;6.55;2.33;;;17.10;99.90;;;;;;5033530;28;20037;-59
2023/08/14 09:41:56;;;;;;;7.40;2.30;;;17.10;99.90;;;;;;5029982;28;20400;-59
2023/08/14 09:44:24;;;;;;;4.72;2.20;;;17.10;99.90;;;;;;5044532;28;20033;-59
2023/08/14 09:46:54;;;;;;;8.60;2.22;;;17.10;99.90;;;;;;5028376;28;20053;-60
2023/08/14 09:49:27;;;;;;;4.38;2.25;;;17.10;99.90;;;;;;5047852;28;20045;-59
2023/08/14 09:51:58;;;;;;;3.78;1.90;;;17.10;99.90;;;;;;5059127;28;20091;-59
2023/08/14 09:54:33;;;;;;;6.60;2.10;;;17.20;99.90;;;;;;5057551;28;20041;-59
2023/08/14 09:57:04;;;;;;;4.35;2.25;;;17.20;99.90;;;;;;5044163;28;20048;-59
2023/08/14 09:59:36;;;;;;;4.15;1.63;;;17.20;99.90;;;;;;5039252;28;20047;-59
2023/08/14 10:02:12;;;;;;;5.28;2.05;;;17.30;99.90;;;;;;5029597;28;20478;-59
2023/08/14 10:04:42;;;;;;;4.25;2.38;;;17.40;99.90;;;;;;5041578;28;20045;-59
2023/08/14 10:07:11;;;;;;;2.53;1.80;;;17.50;99.90;;;;;;5037334;28;20053;-58
2023/08/14 10:09:44;;;;;;;3.25;2.05;;;17.50;99.90;;;;;;5016079;28;20046;-58
2023/08/14 10:12:15;;;;;;;6.72;1.73;;;17.50;99.90;;;;;;5010241;28;20049;-57
2023/08/14 10:14:50;;;;;;;5.00;2.10;;;17.50;99.90;;;;;;5028456;28;20045;-57
2023/08/14 10:17:29;;;;;;;4.03;1.90;;;17.50;99.90;;;;;;5027329;28;20060;-57
2023/08/14 10:20:00;;;;;;;3.70;1.75;;;17.60;99.90;;;;;;5029589;28;20072;-57
2023/08/14 10:22:29;;;;;;;4.55;1.58;;;17.60;99.90;;;;;;5041541;28;20045;-57
2023/08/14 10:24:56;;;;;;;3.47;1.75;;;17.60;99.90;;;;;;5047361;28;20494;-57
2023/08/14 10:27:25;;;;;;;3.83;1.70;;;17.70;99.90;;;;;;5029371;28;20053;-57
2023/08/14 10:29:53;;;;;;;2.72;1.52;;;17.70;99.90;;;;;;5026112;28;20432;-57
2023/08/14 10:32:22;;;;;;;8.32;1.67;;;17.70;99.90;;;;;;5027867;28;20046;-57
2023/08/14 10:34:50;;;;;;;4.45;1.60;;;17.70;99.90;;;;;;5037753;28;20046;-57
2023/08/14 10:37:40;;;;;;;6.80;1.90;;;17.70;99.90;;;;;;5048543;28;20036;-57
2023/08/14 10:40:18;;;;;;;;;;;17.80;99.90;;;;;;5049376;28;20495;-58
2023/08/14 10:42:47;;;;;;;6.15;1.50;;;17.70;99.90;;;;;;5036082;28;19921;-57
2023/08/14 10:45:16;;;;;;;2.88;1.80;;;17.80;99.90;;;;;;5020273;28;20409;-58
2023/08/14 10:47:45;;;;;;;6.22;1.42;;;17.80;99.90;;;;;;5013124;28;20041;-58
2023/08/14 10:50:23;;;;;;;6.13;2.05;;;17.80;99.90;;;;;;5018193;28;20520;-58
2023/08/14 10:52:52;;;;;;;6.63;2.10;;;17.80;99.90;;;;;;5045158;28;20686;-58
2023/08/14 10:55:24;;;;;;;3.58;2.08;;;17.90;99.90;;;;;;5048014;28;20041;-58
2023/08/14 10:57:55;;;;;;;5.65;1.50;;;17.90;99.90;;;;;;5034202;28;20337;-58
2023/08/14 11:00:25;;;;;;;5.20;2.33;;;17.90;99.90;;;;;;5010188;28;20034;-59
2023/08/14 11:03:06;;;;;;;6.82;2.40;;;18.00;99.90;;;;;;5022608;28;20057;-58
2023/08/14 11:05:38;;;;;;;3.80;1.48;;;18.00;99.90;;;;;;5009435;28;20049;-58
2023/08/14 11:08:07;;;;;;;3.70;1.20;;;18.00;99.90;;;;;;5032751;28;20048;-58
2023/08/14 11:10:35;;;;;;;2.75;1.48;;;18.00;99.90;;;;;;5031054;28;20050;-61
2023/08/14 11:13:11;;;;;;;2.15;1.33;;;18.10;99.90;;;;;;5034888;28;20055;-58
2023/08/14 11:15:40;;;;;;;5.75;1.40;;;18.10;99.90;;;;;;5027581;28;20140;-57
2023/08/14 11:18:09;;;;;;;5.75;1.70;;;18.10;99.90;;;;;;5036395;28;20047;-58
2023/08/14 11:20:41;;;;;;;2.60;1.33;;;18.10;99.90;;;;;;5048044;28;20388;-58
2023/08/14 11:23:10;;;;;;;4.63;1.83;;;18.10;99.90;;;;;;5066118;28;20059;-60
2023/08/14 11:25:38;;;;;;;3.30;1.05;;;18.10;99.90;;;;;;5027955;28;20041;-61
2023/08/14 11:28:06;;;;;;;4.20;1.15;;;18.10;99.90;;;;;;5035441;28;20053;-61
2023/08/14 11:30:35;;;;;;;3.30;1.40;;;18.10;99.90;;;;;;5049224;28;20476;-60
2023/08/14 11:33:05;;;;;;;4.53;1.40;;;18.10;99.90;;;;;;5051585;28;20056;-61
2023/08/14 11:35:33;;;;;;;3.40;1.13;;;18.20;99.90;;;;;;5036983;28;20053;-60
2023/08/14 11:38:01;;;;;;;3.78;1.30;;;18.20;99.90;;;;;;5047427;28;20049;-59
2023/08/14 11:40:35;;;;;;;2.90;1.23;;;18.20;99.90;;;;;;5044011;28;20056;-58
2023/08/14 11:43:03;;;;;;;4.65;1.30;;;18.20;99.90;;;;;;5027667;28;20045;-59
2023/08/14 11:45:32;;;;;;;2.97;1.30;;;18.30;99.90;;;;;;5027876;28;20052;-59
2023/08/14 11:48:01;;;;;;;4.05;1.15;;;18.30;99.90;;;;;;5034765;28;20056;-60
2023/08/14 11:50:30;;;;;;;4.03;1.23;;;18.30;99.90;;;;;;5047879;28;20041;-60
2023/08/14 11:52:58;;;;;;;3.67;1.52;;;18.30;99.90;;;;;;5064539;28;20049;-59
2023/08/14 11:55:27;;;;;;;7.03;2.08;;;18.30;99.90;;;;;;5029614;28;20053;-59
2023/08/14 11:57:58;;;;;;;3.60;1.67;;;18.40;99.90;;;;;;5028540;28;20512;-59
2023/08/14 12:00:26;;;;;;;3.60;1.73;;;18.40;99.90;;;;;;5031647;28;20057;-60
2023/08/14 12:03:01;;;;;;;6.43;1.52;;;18.40;99.90;;;;;;5029857;28;20052;-59
2023/08/14 12:05:29;;;;;;;6.13;2.15;;;18.50;99.90;;;;;;5057989;28;20052;-58
2023/08/14 12:07:59;;;;;;;9.48;2.60;;;18.60;99.90;;;;;;5032671;28;20055;-59
2023/08/14 12:10:32;;;;;;;6.40;2.40;;;18.80;99.90;;;;;;5034092;28;20051;-59
2023/08/14 12:13:00;;;;;;;4.55;1.80;;;19.00;99.90;;;;;;5027732;28;20045;-58
2023/08/14 12:15:30;;;;;;;10.07;2.67;;;19.20;99.90;;;;;;5044504;28;20056;-59
2023/08/14 12:17:58;;;;;;;6.53;1.70;;;19.30;99.90;;;;;;5046347;28;20055;-60
2023/08/14 12:20:31;;;;;;;5.00;1.88;;;19.50;99.90;;;;;;5047481;28;20530;-59
2023/08/14 12:23:12;;;;;;;7.05;2.20;;;19.70;99.90;;;;;;5047542;28;20049;-59
2023/08/14 12:25:40;;;;;;;4.35;1.80;;;19.80;99.90;;;;;;5031542;28;20050;-60
2023/08/14 12:28:08;;;;;;;9.82;3.53;;;19.90;99.90;;;;;;5047014;28;20044;-60
2023/08/14 12:30:36;;;;;;;8.48;3.28;;;19.90;99.90;;;;;;5044750;28;20045;-59
2023/08/14 12:33:04;;;;;;;4.63;2.85;;;19.70;99.90;;;;;;5024002;28;20054;-58
2023/08/14 12:35:32;;;;;;;7.57;2.45;;;19.60;99.90;;;;;;5043430;28;20504;-58
2023/08/14 12:37:59;;;;;;;8.27;3.25;;;19.40;99.90;;;;;;5053906;28;20530;-59
2023/08/14 12:40:28;;;;;;;12.73;3.72;;;19.30;99.90;;;;;;5064401;28;20059;-59
2023/08/14 12:42:56;;;;;;;11.05;3.95;;;19.20;99.90;;;;;;5028603;28;20049;-59
2023/08/14 12:45:24;;;;;;;6.93;2.35;;;19.20;99.90;;;;;;5024272;28;20045;-60
2023/08/14 12:47:51;;;;;;;5.55;2.38;;;19.20;99.90;;;;;;5036623;28;20036;-59
2023/08/14 12:50:19;;;;;;;8.77;2.47;;;19.10;99.90;;;;;;5046130;28;20072;-59
2023/08/14 12:52:47;;;;;;;11.68;2.42;;;19.10;99.90;;;;;;5047285;28;20396;-60
2023/08/14 12:55:15;;;;;;;7.63;2.78;;;19.20;99.90;;;;;;5036697;28;20052;-60